createdAt,value
2018-01-12T00:00:22.443Z,0
2018-01-12T00:01:23.033Z,0
2018-01-12T00:02:23.633Z,0
2018-01-12T00:03:24.235Z,0
2018-01-12T00:04:24.835Z,0
2018-01-12T00:05:25.435Z,0
2018-01-12T00:06:26.032Z,0
2018-01-12T00:07:26.630Z,0
2018-01-12T00:08:27.232Z,0
2018-01-12T00:09:27.828Z,0
2018-01-12T00:10:28.433Z,0
2018-01-12T00:11:29.032Z,0
2018-01-12T00:12:29.643Z,0
2018-01-12T00:13:30.245Z,0
2018-01-12T00:14:30.842Z,0
2018-01-12T00:15:31.453Z,0
2018-01-12T00:16:32.057Z,0
2018-01-12T00:17:32.649Z,0
2018-01-12T00:18:33.251Z,0
2018-01-12T00:19:33.853Z,0
2018-01-12T00:20:34.451Z,0
2018-01-12T00:21:35.065Z,0
2018-01-12T00:22:35.668Z,0
2018-01-12T00:23:36.270Z,0
2018-01-12T00:24:36.867Z,0
2018-01-12T00:25:37.487Z,0
2018-01-12T00:26:38.082Z,0
2018-01-12T00:27:38.682Z,0
2018-01-12T00:28:39.280Z,0
2018-01-12T00:29:39.896Z,0
2018-01-12T00:30:40.496Z,0
2018-01-12T00:31:41.103Z,0
2018-01-12T00:32:41.711Z,0
2018-01-12T00:33:42.313Z,0
2018-01-12T00:34:42.920Z,0
2018-01-12T00:35:44.521Z,0
2018-01-12T00:36:45.129Z,0
2018-01-12T00:37:45.716Z,0
2018-01-12T00:38:46.316Z,0
2018-01-12T00:39:46.920Z,0
2018-01-12T00:40:47.526Z,0
2018-01-12T00:41:48.121Z,0
2018-01-12T00:42:48.720Z,0
2018-01-12T00:43:49.319Z,0
2018-01-12T00:44:49.929Z,0
2018-01-12T00:45:50.523Z,0
2018-01-12T00:46:51.131Z,0
2018-01-12T00:47:51.728Z,0
2018-01-12T00:48:52.339Z,0
2018-01-12T00:49:52.943Z,0
2018-01-12T00:50:53.558Z,0
2018-01-12T00:51:54.140Z,0
2018-01-12T00:52:54.738Z,0
2018-01-12T00:53:55.327Z,0
2018-01-12T00:54:55.923Z,0
2018-01-12T00:55:56.526Z,0
2018-01-12T00:56:57.125Z,0
2018-01-12T00:57:57.727Z,0
2018-01-12T00:58:58.319Z,0
2018-01-12T00:59:58.917Z,0
2018-01-12T01:00:59.535Z,0
2018-01-12T01:02:00.141Z,0
2018-01-12T01:03:00.747Z,0
2018-01-12T01:04:01.353Z,0
2018-01-12T01:05:01.960Z,0
2018-01-12T01:06:02.566Z,0
2018-01-12T01:07:03.188Z,0
2018-01-12T01:08:03.795Z,0
2018-01-12T01:09:04.422Z,0
2018-01-12T01:10:05.028Z,0
2018-01-12T01:11:05.632Z,0
2018-01-12T01:12:06.260Z,0
2018-01-12T01:13:06.871Z,0
2018-01-12T01:14:07.476Z,0
2018-01-12T01:15:08.081Z,0
2018-01-12T01:16:08.683Z,0
2018-01-12T01:17:09.287Z,0
2018-01-12T01:18:09.892Z,0
2018-01-12T01:19:10.495Z,0
2018-01-12T01:20:11.100Z,0
2018-01-12T01:21:11.705Z,0
2018-01-12T01:22:12.331Z,0
2018-01-12T01:23:12.936Z,0
2018-01-12T01:24:13.542Z,0
2018-01-12T01:25:14.169Z,0
2018-01-12T01:26:14.772Z,0
2018-01-12T01:27:15.399Z,0
2018-01-12T01:28:16.026Z,0
2018-01-12T01:29:16.631Z,0
2018-01-12T01:30:17.237Z,0
2018-01-12T01:31:17.863Z,0
2018-01-12T01:32:18.465Z,0
2018-01-12T01:33:19.069Z,0
2018-01-12T01:34:19.673Z,0
2018-01-12T01:35:20.278Z,0
2018-01-12T01:36:20.881Z,0
2018-01-12T01:37:21.521Z,0
2018-01-12T01:38:22.150Z,0
2018-01-12T01:39:22.754Z,0
2018-01-12T01:40:23.356Z,0
2018-01-12T01:41:23.960Z,0
2018-01-12T01:42:24.566Z,0
2018-01-12T01:43:25.173Z,0
2018-01-12T01:44:25.779Z,0
2018-01-12T01:45:26.384Z,0
2018-01-12T01:46:26.990Z,0
2018-01-12T01:47:27.596Z,0
2018-01-12T01:48:28.200Z,0
2018-01-12T01:49:28.804Z,0
2018-01-12T01:50:29.429Z,0
2018-01-12T01:51:30.035Z,0
2018-01-12T01:52:30.640Z,0
2018-01-12T01:53:31.243Z,0
2018-01-12T01:54:31.847Z,0
2018-01-12T01:55:32.450Z,0
2018-01-12T01:56:33.054Z,0
2018-01-12T01:57:33.658Z,0
2018-01-12T01:58:34.284Z,0
2018-01-12T01:59:34.888Z,0
2018-01-12T02:00:35.492Z,0
2018-01-12T02:01:36.096Z,0
2018-01-12T02:02:36.701Z,0
2018-01-12T02:03:37.304Z,0
2018-01-12T02:04:37.907Z,0
2018-01-12T02:05:38.565Z,0
2018-01-12T02:06:39.115Z,0
2018-01-12T02:07:39.721Z,0
2018-01-12T02:08:40.326Z,0
2018-01-12T02:09:40.931Z,0
2018-01-12T02:10:41.534Z,0
2018-01-12T02:11:42.136Z,0
2018-01-12T02:12:42.740Z,0
2018-01-12T02:13:43.345Z,0
2018-01-12T02:14:43.949Z,0
2018-01-12T02:15:44.553Z,0
2018-01-12T02:16:45.156Z,0
2018-01-12T02:17:45.761Z,0
2018-01-12T02:18:46.365Z,0
2018-01-12T02:19:46.971Z,0
2018-01-12T02:20:47.575Z,0
2018-01-12T02:21:48.179Z,0
2018-01-12T02:22:48.781Z,0
2018-01-12T02:23:49.388Z,0
2018-01-12T02:24:49.989Z,0
2018-01-12T02:25:50.593Z,0
2018-01-12T02:26:51.197Z,0
2018-01-12T02:27:51.828Z,0
2018-01-12T02:28:52.450Z,0
2018-01-12T02:29:53.055Z,0
2018-01-12T02:30:53.661Z,0
2018-01-12T02:31:54.266Z,0
2018-01-12T02:32:54.872Z,0
2018-01-12T02:33:55.474Z,0
2018-01-12T02:34:56.078Z,0
2018-01-12T02:35:56.704Z,0
2018-01-12T02:36:57.308Z,0
2018-01-12T02:37:57.914Z,0
2018-01-12T02:38:58.518Z,0
2018-01-12T02:39:59.123Z,0
2018-01-12T02:40:59.726Z,0
2018-01-12T02:42:00.351Z,0
2018-01-12T02:43:00.956Z,0
2018-01-12T02:44:01.563Z,0
2018-01-12T02:45:02.168Z,0
2018-01-12T02:46:02.769Z,0
2018-01-12T02:47:03.373Z,0
2018-01-12T02:48:03.978Z,0
2018-01-12T02:49:04.583Z,0
2018-01-12T02:50:05.186Z,0
2018-01-12T02:51:05.813Z,0
2018-01-12T02:52:06.418Z,0
2018-01-12T02:53:07.020Z,0
2018-01-12T02:54:07.623Z,0
2018-01-12T02:55:08.227Z,0
2018-01-12T02:56:08.854Z,0
2018-01-12T02:57:09.478Z,0
2018-01-12T02:58:10.082Z,0
2018-01-12T02:59:10.688Z,0
2018-01-12T03:00:11.298Z,0
2018-01-12T03:01:11.898Z,0
2018-01-12T03:02:12.492Z,0
2018-01-12T03:03:13.093Z,0
2018-01-12T03:04:13.690Z,0
2018-01-12T03:05:14.291Z,0
2018-01-12T03:06:14.892Z,0
2018-01-12T03:07:15.497Z,0
2018-01-12T03:08:16.103Z,0
2018-01-12T03:09:16.708Z,0
2018-01-12T03:10:17.301Z,0
2018-01-12T03:11:17.901Z,0
2018-01-12T03:12:18.495Z,0
2018-01-12T03:13:19.111Z,0
2018-01-12T03:14:19.712Z,0
2018-01-12T03:15:20.311Z,0
2018-01-12T03:16:20.913Z,0
2018-01-12T03:17:21.511Z,0
2018-01-12T03:18:22.111Z,0
2018-01-12T03:19:22.717Z,0
2018-01-12T03:20:23.334Z,0
2018-01-12T03:21:23.936Z,0
2018-01-12T03:22:24.534Z,0
2018-01-12T03:23:25.132Z,0
2018-01-12T03:24:25.727Z,0
2018-01-12T03:25:26.334Z,0
2018-01-12T03:26:26.942Z,0
2018-01-12T03:27:27.545Z,0
2018-01-12T03:28:28.146Z,0
2018-01-12T03:29:28.748Z,0
2018-01-12T03:30:29.355Z,0
2018-01-12T03:31:29.956Z,0
2018-01-12T03:32:30.545Z,0
2018-01-12T03:33:31.136Z,0
2018-01-12T03:34:31.735Z,0
2018-01-12T03:35:32.335Z,0
2018-01-12T03:36:32.932Z,0
2018-01-12T03:37:33.539Z,0
2018-01-12T03:38:34.129Z,0
2018-01-12T03:39:34.731Z,0
2018-01-12T03:40:35.328Z,0
2018-01-12T03:41:35.925Z,0
2018-01-12T03:42:36.538Z,0
2018-01-12T03:43:37.126Z,0
2018-01-12T03:44:37.724Z,0
2018-01-12T03:45:38.320Z,0
2018-01-12T03:46:38.928Z,0
2018-01-12T03:47:39.535Z,0
2018-01-12T03:48:40.139Z,0
2018-01-12T03:49:40.737Z,0
2018-01-12T03:50:41.340Z,0
2018-01-12T03:51:41.956Z,0
2018-01-12T03:52:42.551Z,0
2018-01-12T03:53:43.162Z,0
2018-01-12T03:54:43.771Z,0
2018-01-12T03:55:44.374Z,0
2018-01-12T03:56:44.989Z,0
2018-01-12T03:57:45.605Z,0
2018-01-12T03:58:46.214Z,0
2018-01-12T03:59:46.810Z,0
2018-01-12T04:00:47.416Z,0
2018-01-12T04:01:48.012Z,0
2018-01-12T04:02:48.614Z,0
2018-01-12T04:03:49.213Z,0
2018-01-12T04:04:49.818Z,0
2018-01-12T04:05:50.422Z,0
2018-01-12T04:06:51.027Z,0
2018-01-12T04:07:51.633Z,0
2018-01-12T04:08:52.225Z,0
2018-01-12T04:09:52.820Z,0
2018-01-12T04:10:53.419Z,0
2018-01-12T04:11:54.016Z,0
2018-01-12T04:12:54.618Z,0
2018-01-12T04:13:55.204Z,0
2018-01-12T04:14:55.794Z,0
2018-01-12T04:15:56.400Z,0
2018-01-12T04:16:57.003Z,0
2018-01-12T04:17:57.609Z,0
2018-01-12T04:18:58.219Z,0
2018-01-12T04:19:58.815Z,0
2018-01-12T04:20:59.424Z,0
2018-01-12T04:22:00.017Z,0
2018-01-12T04:23:00.613Z,0
2018-01-12T04:24:01.212Z,0
2018-01-12T04:25:01.805Z,0
2018-01-12T04:26:02.399Z,0
2018-01-12T04:27:03.003Z,0
2018-01-12T04:28:03.610Z,0
2018-01-12T04:29:04.208Z,0
2018-01-12T04:30:04.803Z,0
2018-01-12T04:31:05.400Z,0
2018-01-12T04:32:05.998Z,0
2018-01-12T04:33:06.612Z,0
2018-01-12T04:34:07.222Z,0
2018-01-12T04:35:07.837Z,0
2018-01-12T04:36:08.440Z,0
2018-01-12T04:37:09.035Z,0
2018-01-12T04:38:09.639Z,0
2018-01-12T04:39:10.233Z,0
2018-01-12T04:40:10.838Z,0
2018-01-12T04:41:11.457Z,0
2018-01-12T04:42:12.056Z,0
2018-01-12T04:43:12.658Z,0
2018-01-12T04:44:13.257Z,0
2018-01-12T04:45:13.856Z,0
2018-01-12T04:46:14.452Z,0
2018-01-12T04:47:15.041Z,0
2018-01-12T04:48:15.638Z,0
2018-01-12T04:49:16.232Z,0
2018-01-12T04:50:16.844Z,0
2018-01-12T04:51:17.450Z,0
2018-01-12T04:52:18.039Z,0
2018-01-12T04:53:18.636Z,0
2018-01-12T04:54:19.229Z,0
2018-01-12T04:55:19.827Z,0
2018-01-12T04:56:20.433Z,0
2018-01-12T04:57:21.043Z,0
2018-01-12T04:58:21.640Z,0
2018-01-12T04:59:22.252Z,0
2018-01-12T05:00:22.851Z,0
2018-01-12T05:01:23.459Z,0
2018-01-12T05:02:24.055Z,0
2018-01-12T05:03:24.659Z,0
2018-01-12T05:04:25.255Z,0
2018-01-12T05:05:25.863Z,0
2018-01-12T05:06:26.473Z,0
2018-01-12T05:07:27.082Z,0
2018-01-12T05:08:27.680Z,0
2018-01-12T05:09:28.272Z,0
2018-01-12T05:10:28.879Z,0
2018-01-12T05:11:29.488Z,0
2018-01-12T05:12:30.104Z,0
2018-01-12T05:13:30.707Z,0
2018-01-12T05:14:31.320Z,0
2018-01-12T05:15:31.932Z,0
2018-01-12T05:16:32.522Z,0
2018-01-12T05:17:33.129Z,0
2018-01-12T05:18:33.738Z,0
2018-01-12T05:19:34.357Z,0
2018-01-12T05:20:34.960Z,0
2018-01-12T05:21:35.566Z,0
2018-01-12T05:22:36.180Z,0
2018-01-12T05:23:36.788Z,0
2018-01-12T05:24:37.378Z,0
2018-01-12T05:25:37.978Z,0
2018-01-12T05:26:38.585Z,0
2018-01-12T05:27:39.185Z,0
2018-01-12T05:28:39.802Z,0
2018-01-12T05:29:40.403Z,0
2018-01-12T05:30:40.994Z,0
2018-01-12T05:31:41.599Z,0
2018-01-12T05:32:42.212Z,0
2018-01-12T05:33:42.799Z,0
2018-01-12T05:34:43.387Z,0
2018-01-12T05:35:43.984Z,0
2018-01-12T05:36:44.589Z,0
2018-01-12T05:37:45.189Z,0
2018-01-12T05:38:45.801Z,0
2018-01-12T05:39:46.423Z,0
2018-01-12T05:40:47.027Z,0
2018-01-12T05:41:47.626Z,0
2018-01-12T05:42:48.219Z,0
2018-01-12T05:43:48.808Z,0
2018-01-12T05:44:49.406Z,0
2018-01-12T05:45:50.005Z,0
2018-01-12T05:46:50.609Z,0
2018-01-12T05:47:51.211Z,0
2018-01-12T05:48:51.822Z,0
2018-01-12T05:49:52.436Z,0
2018-01-12T05:50:53.042Z,0
2018-01-12T05:51:53.648Z,0
2018-01-12T05:52:54.257Z,0
2018-01-12T05:53:54.855Z,0
2018-01-12T05:54:55.461Z,0
2018-01-12T05:55:56.062Z,0
2018-01-12T05:56:56.665Z,0
2018-01-12T05:57:57.271Z,0
2018-01-12T05:58:57.874Z,0
2018-01-12T05:59:58.479Z,0
2018-01-12T06:00:59.086Z,0
2018-01-12T06:01:59.692Z,0
2018-01-12T06:03:00.296Z,0
2018-01-12T06:04:00.892Z,0
2018-01-12T06:05:01.489Z,0
2018-01-12T06:06:02.085Z,0
2018-01-12T06:07:02.689Z,0
2018-01-12T06:08:03.291Z,0
2018-01-12T06:09:03.888Z,0
2018-01-12T06:10:04.501Z,0
2018-01-12T06:11:05.098Z,0
2018-01-12T06:12:05.690Z,0
2018-01-12T06:13:06.286Z,0
2018-01-12T06:14:06.900Z,0
2018-01-12T06:15:07.505Z,0
2018-01-12T06:16:08.102Z,0
2018-01-12T06:17:08.704Z,0
2018-01-12T06:18:09.303Z,0
2018-01-12T06:19:09.899Z,0
2018-01-12T06:20:10.500Z,0
2018-01-12T06:21:11.099Z,0
2018-01-12T06:22:11.700Z,0
2018-01-12T06:23:12.326Z,0
2018-01-12T06:24:12.912Z,0
2018-01-12T06:25:13.514Z,0
2018-01-12T06:26:14.115Z,0
2018-01-12T06:27:14.719Z,0
2018-01-12T06:28:15.329Z,0
2018-01-12T06:29:15.933Z,0
2018-01-12T06:30:16.541Z,0
2018-01-12T06:31:17.154Z,0
2018-01-12T06:32:17.756Z,0
2018-01-12T06:33:18.351Z,0
2018-01-12T06:34:18.954Z,0
2018-01-12T06:35:19.558Z,0
2018-01-12T06:36:20.165Z,0
2018-01-12T06:37:20.769Z,0
2018-01-12T06:38:21.377Z,0
2018-01-12T06:39:21.980Z,0
2018-01-12T06:40:22.583Z,0
2018-01-12T06:41:23.185Z,0
2018-01-12T06:42:23.787Z,0
2018-01-12T06:43:24.385Z,0
2018-01-12T06:44:24.988Z,0
2018-01-12T06:45:25.587Z,0
2018-01-12T06:46:26.191Z,0
2018-01-12T06:47:26.801Z,0
2018-01-12T06:48:27.399Z,0
2018-01-12T06:49:28.002Z,0
2018-01-12T06:50:28.609Z,0
2018-01-12T06:51:29.219Z,0
2018-01-12T06:52:29.859Z,0
2018-01-12T06:53:30.490Z,0
2018-01-12T06:54:31.050Z,0
2018-01-12T06:55:31.659Z,0
2018-01-12T06:56:32.273Z,0
2018-01-12T06:57:32.884Z,0
2018-01-12T06:58:33.480Z,0
2018-01-12T06:59:34.087Z,0
2018-01-12T07:00:34.698Z,4
2018-01-12T07:01:35.294Z,4
2018-01-12T07:02:35.895Z,0
2018-01-12T07:03:36.491Z,0
2018-01-12T07:04:37.089Z,4
2018-01-12T07:05:37.696Z,0
2018-01-12T07:06:38.315Z,4
2018-01-12T07:07:38.926Z,4
2018-01-12T07:08:39.538Z,4
2018-01-12T07:09:40.128Z,8
2018-01-12T07:10:40.717Z,8
2018-01-12T07:11:41.313Z,12
2018-01-12T07:12:41.932Z,8
2018-01-12T07:13:42.545Z,16
2018-01-12T07:14:43.146Z,16
2018-01-12T07:15:43.741Z,20
2018-01-12T07:16:44.345Z,24
2018-01-12T07:17:44.952Z,24
2018-01-12T07:18:45.549Z,24
2018-01-12T07:19:46.150Z,28
2018-01-12T07:20:46.749Z,32
2018-01-12T07:21:47.357Z,36
2018-01-12T07:22:47.977Z,40
2018-01-12T07:23:48.595Z,44
2018-01-12T07:24:49.337Z,52
2018-01-12T07:25:49.954Z,56
2018-01-12T07:26:50.563Z,68
2018-01-12T07:27:51.179Z,84
2018-01-12T07:28:51.783Z,92
2018-01-12T07:29:52.409Z,112
2018-01-12T07:30:53.007Z,120
2018-01-12T07:31:53.607Z,120
2018-01-12T07:32:54.214Z,120
2018-01-12T07:33:54.818Z,120
2018-01-12T07:34:55.425Z,144
2018-01-12T07:35:56.035Z,148
2018-01-12T07:36:56.634Z,152
2018-01-12T07:37:57.242Z,156
2018-01-12T07:38:57.849Z,168
2018-01-12T07:39:58.468Z,180
2018-01-12T07:40:59.074Z,196
2018-01-12T07:41:59.673Z,204
2018-01-12T07:43:00.286Z,204
2018-01-12T07:44:00.885Z,220
2018-01-12T07:45:01.542Z,220
2018-01-12T07:46:02.095Z,220
2018-01-12T07:47:02.698Z,232
2018-01-12T07:48:03.631Z,268
2018-01-12T07:49:04.139Z,272
2018-01-12T07:50:04.748Z,292
2018-01-12T07:51:05.357Z,316
2018-01-12T07:52:05.956Z,340
2018-01-12T07:53:06.571Z,340
2018-01-12T07:54:07.191Z,340
2018-01-12T07:55:07.807Z,332
2018-01-12T07:56:08.403Z,376
2018-01-12T07:57:09.001Z,376
2018-01-12T07:58:09.611Z,364
2018-01-12T07:59:10.260Z,380
2018-01-12T08:00:10.849Z,416
2018-01-12T08:01:11.454Z,448
2018-01-12T08:02:12.052Z,464
2018-01-12T08:03:12.674Z,448
2018-01-12T08:04:13.287Z,440
2018-01-12T08:05:13.882Z,448
2018-01-12T08:06:14.487Z,492
2018-01-12T08:07:15.087Z,508
2018-01-12T08:08:15.698Z,516
2018-01-12T08:09:16.311Z,516
2018-01-12T08:10:16.928Z,544
2018-01-12T08:11:17.543Z,568
2018-01-12T08:12:18.158Z,576
2018-01-12T08:13:18.770Z,584
2018-01-12T08:14:19.376Z,556
2018-01-12T08:15:19.990Z,616
2018-01-12T08:16:20.602Z,684
2018-01-12T08:17:21.209Z,780
2018-01-12T08:18:21.849Z,724
2018-01-12T08:19:22.421Z,716
2018-01-12T08:20:23.036Z,752
2018-01-12T08:21:23.644Z,784
2018-01-12T08:22:24.246Z,772
2018-01-12T08:23:24.891Z,756
2018-01-12T08:24:25.504Z,888
2018-01-12T08:25:26.114Z,880
2018-01-12T08:26:26.709Z,900
2018-01-12T08:27:27.320Z,932
2018-01-12T08:28:27.921Z,892
2018-01-12T08:29:28.534Z,1004
2018-01-12T08:30:29.136Z,1012
2018-01-12T08:31:29.740Z,1108
2018-01-12T08:32:30.358Z,1088
2018-01-12T08:33:30.976Z,1156
2018-01-12T08:34:31.596Z,1092
2018-01-12T08:35:32.211Z,1104
2018-01-12T08:36:32.830Z,1180
2018-01-12T08:37:33.440Z,1316
2018-01-12T08:38:34.047Z,1604
2018-01-12T08:39:34.656Z,1600
2018-01-12T08:40:35.271Z,1556
2018-01-12T08:41:35.876Z,1400
2018-01-12T08:42:36.486Z,1444
2018-01-12T08:43:37.090Z,1456
2018-01-12T08:44:37.712Z,1456
2018-01-12T08:45:38.327Z,1364
2018-01-12T08:46:38.978Z,1280
2018-01-12T08:47:39.575Z,1288
2018-01-12T08:48:40.176Z,1292
2018-01-12T08:49:40.777Z,1380
2018-01-12T08:50:41.384Z,1468
2018-01-12T08:51:42.001Z,1516
2018-01-12T08:52:42.615Z,1568
2018-01-12T08:53:43.228Z,1640
2018-01-12T08:54:43.832Z,1684
2018-01-12T08:55:44.444Z,1692
2018-01-12T08:56:45.055Z,1708
2018-01-12T08:57:45.664Z,1684
2018-01-12T08:58:46.260Z,1660
2018-01-12T08:59:46.885Z,1768
2018-01-12T09:00:47.471Z,1892
2018-01-12T09:01:48.082Z,1972
2018-01-12T09:02:48.676Z,1988
2018-01-12T09:03:49.329Z,2044
2018-01-12T09:04:49.929Z,2112
2018-01-12T09:05:50.538Z,2100
2018-01-12T09:06:51.151Z,2140
2018-01-12T09:07:51.766Z,2148
2018-01-12T09:08:52.366Z,2144
2018-01-12T09:09:52.979Z,2192
2018-01-12T09:10:53.587Z,2148
2018-01-12T09:11:54.191Z,2136
2018-01-12T09:12:54.797Z,2168
2018-01-12T09:13:55.401Z,2128
2018-01-12T09:14:56.008Z,2136
2018-01-12T09:15:56.614Z,2152
2018-01-12T09:16:57.218Z,2160
2018-01-12T09:17:57.819Z,2188
2018-01-12T09:18:58.435Z,2208
2018-01-12T09:19:59.044Z,2184
2018-01-12T09:20:59.663Z,2204
2018-01-12T09:22:00.277Z,2404
2018-01-12T09:23:00.873Z,2684
2018-01-12T09:24:01.507Z,2968
2018-01-12T09:25:02.098Z,2916
2018-01-12T09:26:02.694Z,2928
2018-01-12T09:27:03.308Z,3084
2018-01-12T09:28:03.931Z,3236
2018-01-12T09:29:04.543Z,3056
2018-01-12T09:30:05.162Z,2928
2018-01-12T09:31:05.767Z,3088
2018-01-12T09:32:06.389Z,3292
2018-01-12T09:33:07.001Z,3304
2018-01-12T09:34:07.614Z,3216
2018-01-12T09:35:08.221Z,3076
2018-01-12T09:36:08.858Z,2936
2018-01-12T09:37:09.470Z,2884
2018-01-12T09:38:10.078Z,2820
2018-01-12T09:39:10.690Z,2744
2018-01-12T09:40:11.322Z,2740
2018-01-12T09:41:11.945Z,2672
2018-01-12T09:42:12.575Z,2592
2018-01-12T09:43:13.172Z,2340
2018-01-12T09:44:13.777Z,2168
2018-01-12T09:45:14.384Z,2212
2018-01-12T09:46:14.984Z,2408
2018-01-12T09:47:15.928Z,2704
2018-01-12T09:48:16.438Z,2720
2018-01-12T09:49:17.053Z,2724
2018-01-12T09:50:17.668Z,2732
2018-01-12T09:51:18.647Z,2736
2018-01-12T09:52:19.184Z,2744
2018-01-12T09:53:19.790Z,2668
2018-01-12T09:54:20.416Z,2640
2018-01-12T09:55:21.017Z,2684
2018-01-12T09:56:21.614Z,2728
2018-01-12T09:57:22.243Z,2808
2018-01-12T09:58:22.864Z,2804
2018-01-12T09:59:23.490Z,2708
2018-01-12T10:00:24.127Z,2824
2018-01-12T10:01:24.755Z,2956
2018-01-12T10:02:25.361Z,2984
2018-01-12T10:03:25.980Z,2952
2018-01-12T10:04:26.591Z,2884
2018-01-12T10:05:27.217Z,2788
2018-01-12T10:06:27.833Z,2692
2018-01-12T10:07:28.442Z,2720
2018-01-12T10:08:29.069Z,2716
2018-01-12T10:09:29.695Z,2648
2018-01-12T10:10:30.307Z,2596
2018-01-12T10:11:30.916Z,2568
2018-01-12T10:12:31.521Z,2564
2018-01-12T10:13:32.147Z,2592
2018-01-12T10:14:32.771Z,2612
2018-01-12T10:15:33.429Z,2656
2018-01-12T10:16:33.998Z,2752
2018-01-12T10:17:34.614Z,2868
2018-01-12T10:18:35.218Z,2972
2018-01-12T10:19:35.836Z,3032
2018-01-12T10:20:36.454Z,3024
2018-01-12T10:21:37.067Z,2968
2018-01-12T10:22:37.681Z,2920
2018-01-12T10:23:38.315Z,2904
2018-01-12T10:24:38.937Z,2908
2018-01-12T10:25:39.568Z,2880
2018-01-12T10:26:40.200Z,2844
2018-01-12T10:27:40.817Z,2888
2018-01-12T10:28:41.436Z,3016
2018-01-12T10:29:42.074Z,3152
2018-01-12T10:30:42.701Z,3260
2018-01-12T10:31:43.327Z,3324
2018-01-12T10:32:44.133Z,3376
2018-01-12T10:33:44.745Z,3568
2018-01-12T10:34:45.392Z,3868
2018-01-12T10:35:46.032Z,4048
2018-01-12T10:36:46.643Z,4096
2018-01-12T10:37:47.240Z,4232
2018-01-12T10:38:47.860Z,4416
2018-01-12T10:39:48.683Z,4548
2018-01-12T10:40:49.299Z,4592
2018-01-12T10:41:49.916Z,4612
2018-01-12T10:42:50.545Z,4608
2018-01-12T10:43:51.165Z,4592
2018-01-12T10:44:51.784Z,4568
2018-01-12T10:45:52.435Z,4592
2018-01-12T10:46:53.013Z,4736
2018-01-12T10:47:53.636Z,4980
2018-01-12T10:48:54.257Z,5312
2018-01-12T10:49:54.877Z,5504
2018-01-12T10:50:55.491Z,5376
2018-01-12T10:51:56.108Z,5064
2018-01-12T10:52:56.727Z,4760
2018-01-12T10:53:57.341Z,4464
2018-01-12T10:54:57.943Z,4272
2018-01-12T10:55:58.557Z,4436
2018-01-12T10:56:59.153Z,4780
2018-01-12T10:57:59.762Z,5152
2018-01-12T10:59:00.378Z,5460
2018-01-12T11:00:00.995Z,5644
2018-01-12T11:01:01.607Z,5616
2018-01-12T11:02:02.204Z,5416
2018-01-12T11:03:03.014Z,5280
2018-01-12T11:04:03.611Z,5256
2018-01-12T11:05:04.224Z,5224
2018-01-12T11:06:04.840Z,5204
2018-01-12T11:07:05.451Z,5188
2018-01-12T11:08:06.059Z,5160
2018-01-12T11:09:06.668Z,5120
2018-01-12T11:10:07.271Z,5032
2018-01-12T11:11:08.302Z,4956
2018-01-12T11:12:08.906Z,4904
2018-01-12T11:13:09.503Z,4760
2018-01-12T11:14:10.124Z,4556
2018-01-12T11:15:10.737Z,4412
2018-01-12T11:16:11.352Z,4324
2018-01-12T11:17:11.988Z,4240
2018-01-12T11:18:12.609Z,4268
2018-01-12T11:19:13.220Z,4428
2018-01-12T11:20:13.823Z,4572
2018-01-12T11:21:14.425Z,4668
2018-01-12T11:22:15.056Z,4616
2018-01-12T11:23:15.674Z,4464
2018-01-12T11:24:16.286Z,4312
2018-01-12T11:25:16.885Z,4184
2018-01-12T11:26:17.492Z,4104
2018-01-12T11:27:18.220Z,4048
2018-01-12T11:28:18.875Z,4000
2018-01-12T11:29:19.523Z,3932
2018-01-12T11:30:20.116Z,3892
2018-01-12T11:31:20.725Z,3900
2018-01-12T11:32:21.334Z,3932
2018-01-12T11:33:21.940Z,3988
2018-01-12T11:34:22.554Z,4104
2018-01-12T11:35:23.168Z,4208
2018-01-12T11:36:23.816Z,4240
2018-01-12T11:37:24.654Z,4236
2018-01-12T11:38:25.481Z,4200
2018-01-12T11:39:26.100Z,4180
2018-01-12T11:40:26.699Z,4196
2018-01-12T11:41:27.328Z,4224
2018-01-12T11:42:27.951Z,4228
2018-01-12T11:43:28.555Z,4208
2018-01-12T11:44:29.215Z,4196
2018-01-12T11:45:29.813Z,4204
2018-01-12T11:46:30.443Z,4248
2018-01-12T11:47:31.034Z,4332
2018-01-12T11:48:31.644Z,4404
2018-01-12T11:49:32.405Z,4444
2018-01-12T11:50:33.038Z,4480
2018-01-12T11:51:33.667Z,4508
2018-01-12T11:52:34.310Z,4540
2018-01-12T11:53:34.914Z,4576
2018-01-12T11:54:35.523Z,4592
2018-01-12T11:55:36.147Z,4740
2018-01-12T11:56:36.768Z,5108
2018-01-12T11:57:37.399Z,5604
2018-01-12T11:58:38.043Z,6072
2018-01-12T11:59:38.685Z,6404
2018-01-12T12:00:39.311Z,6584
2018-01-12T12:01:39.920Z,6496
2018-01-12T12:02:40.548Z,6308
2018-01-12T12:03:41.162Z,6264
2018-01-12T12:04:41.793Z,6220
2018-01-12T12:05:42.431Z,6072
2018-01-12T12:06:43.053Z,5824
2018-01-12T12:07:43.651Z,5500
2018-01-12T12:08:44.257Z,5180
2018-01-12T12:09:44.879Z,4940
2018-01-12T12:10:45.500Z,4744
2018-01-12T12:11:46.111Z,4560
2018-01-12T12:12:46.733Z,4400
2018-01-12T12:13:47.348Z,4284
2018-01-12T12:14:47.973Z,4232
2018-01-12T12:15:48.591Z,4216
2018-01-12T12:16:49.213Z,4216
2018-01-12T12:17:49.813Z,4224
2018-01-12T12:18:50.437Z,4204
2018-01-12T12:19:51.025Z,4172
2018-01-12T12:20:51.623Z,4140
2018-01-12T12:21:52.239Z,4164
2018-01-12T12:22:52.851Z,4192
2018-01-12T12:23:53.462Z,4188
2018-01-12T12:24:54.059Z,4244
2018-01-12T12:25:54.669Z,4372
2018-01-12T12:26:55.289Z,4512
2018-01-12T12:27:55.893Z,4640
2018-01-12T12:28:56.524Z,4816
2018-01-12T12:29:57.159Z,4992
2018-01-12T12:30:57.790Z,5120
2018-01-12T12:31:58.396Z,5228
2018-01-12T12:32:59.006Z,5272
2018-01-12T12:33:59.618Z,5284
2018-01-12T12:35:00.218Z,5324
2018-01-12T12:36:00.827Z,5388
2018-01-12T12:37:01.435Z,5352
2018-01-12T12:38:02.050Z,5172
2018-01-12T12:39:02.673Z,4876
2018-01-12T12:40:03.271Z,4632
2018-01-12T12:41:03.892Z,4564
2018-01-12T12:42:04.510Z,4664
2018-01-12T12:43:05.128Z,4904
2018-01-12T12:44:05.749Z,5220
2018-01-12T12:45:06.358Z,5456
2018-01-12T12:46:06.971Z,5504
2018-01-12T12:47:07.575Z,5480
2018-01-12T12:48:08.181Z,5304
2018-01-12T12:49:08.794Z,4976
2018-01-12T12:50:09.410Z,4672
2018-01-12T12:51:10.024Z,4492
2018-01-12T12:52:10.638Z,4476
2018-01-12T12:53:11.258Z,4672
2018-01-12T12:54:11.863Z,5032
2018-01-12T12:55:12.467Z,5432
2018-01-12T12:56:13.085Z,5720
2018-01-12T12:57:13.711Z,5820
2018-01-12T12:58:14.336Z,5744
2018-01-12T12:59:14.972Z,5604
2018-01-12T13:00:15.564Z,5472
2018-01-12T13:01:16.180Z,5304
2018-01-12T13:02:16.776Z,5048
2018-01-12T13:03:17.395Z,4740
2018-01-12T13:04:17.989Z,4484
2018-01-12T13:05:18.608Z,4352
2018-01-12T13:06:19.208Z,4372
2018-01-12T13:07:19.825Z,4468
2018-01-12T13:08:20.433Z,4532
2018-01-12T13:09:21.053Z,4476
2018-01-12T13:10:21.674Z,4372
2018-01-12T13:11:22.295Z,4320
2018-01-12T13:12:22.899Z,4300
2018-01-12T13:13:23.508Z,4288
2018-01-12T13:14:24.116Z,4300
2018-01-12T13:15:24.719Z,4368
2018-01-12T13:16:25.323Z,4468
2018-01-12T13:17:25.921Z,4584
2018-01-12T13:18:26.529Z,4724
2018-01-12T13:19:27.272Z,4852
2018-01-12T13:20:27.908Z,4976
2018-01-12T13:21:28.530Z,5092
2018-01-12T13:22:29.148Z,5208
2018-01-12T13:23:29.772Z,5308
2018-01-12T13:24:30.393Z,5400
2018-01-12T13:25:31.016Z,5464
2018-01-12T13:26:31.628Z,5496
2018-01-12T13:27:32.237Z,5484
2018-01-12T13:28:32.840Z,5432
2018-01-12T13:29:33.457Z,5360
2018-01-12T13:30:34.075Z,5288
2018-01-12T13:31:34.690Z,5184
2018-01-12T13:32:35.303Z,5072
2018-01-12T13:33:35.906Z,4972
2018-01-12T13:34:36.520Z,4948
2018-01-12T13:35:37.137Z,5032
2018-01-12T13:36:37.749Z,5208
2018-01-12T13:37:38.367Z,5420
2018-01-12T13:38:38.975Z,5624
2018-01-12T13:39:39.627Z,5784
2018-01-12T13:40:40.248Z,5892
2018-01-12T13:41:40.860Z,5996
2018-01-12T13:42:41.483Z,6120
2018-01-12T13:43:42.101Z,6264
2018-01-12T13:44:42.707Z,6408
2018-01-12T13:45:43.310Z,6456
2018-01-12T13:46:43.926Z,6376
2018-01-12T13:47:44.534Z,6224
2018-01-12T13:48:45.143Z,6104
2018-01-12T13:49:45.766Z,6012
2018-01-12T13:50:46.375Z,5956
2018-01-12T13:51:46.992Z,5920
2018-01-12T13:52:47.609Z,5828
2018-01-12T13:53:48.214Z,5700
2018-01-12T13:54:48.856Z,5548
2018-01-12T13:55:49.459Z,5396
2018-01-12T13:56:50.073Z,5268
2018-01-12T13:57:50.677Z,5132
2018-01-12T13:58:51.279Z,4980
2018-01-12T13:59:51.878Z,4868
2018-01-12T14:00:52.490Z,4820
2018-01-12T14:01:53.106Z,4836
2018-01-12T14:02:53.728Z,4876
2018-01-12T14:03:54.353Z,4868
2018-01-12T14:04:54.958Z,4792
2018-01-12T14:05:55.575Z,4680
2018-01-12T14:06:56.190Z,4588
2018-01-12T14:07:56.808Z,4536
2018-01-12T14:08:57.451Z,4516
2018-01-12T14:09:58.076Z,4484
2018-01-12T14:10:58.692Z,4376
2018-01-12T14:11:59.292Z,4184
2018-01-12T14:12:59.909Z,3940